Time;durP1;ratioP1;P1;durP2;ratioP2;P2;SDS_P1;SDS_P2;PMS_P1;PMS_P2;Temp;Humidity;BMP_temperature;BMP_pressure;BME280_temperature;BME280_humidity;BME280_pressure;Samples;Min_cycle;Max_cycle;Signal;HPM_P1;HPM_P2
2021/08/20 00:01:01;;;;;;;4.20;3.63;;;17.40;99.90;;;18.43;90.96;97948.03;5214909;28;20213;-61
2021/08/20 00:03:34;;;;;;;3.60;3.30;;;17.40;99.90;;;18.42;91.04;97951.44;5212193;28;20716;-60
2021/08/20 00:06:07;;;;;;;4.43;3.60;;;17.50;99.90;;;18.42;91.15;97946.25;5216568;28;20217;-60
2021/08/20 00:08:41;;;;;;;3.90;3.50;;;17.50;99.90;;;18.41;91.00;97943.66;5211949;28;20229;-60
2021/08/20 00:11:14;;;;;;;4.32;3.80;;;17.50;99.90;;;18.36;91.09;97940.91;5211689;28;20199;-60
2021/08/20 00:13:47;;;;;;;4.20;3.90;;;17.40;99.90;;;18.34;91.55;97941.72;5215987;28;20197;-61
2021/08/20 00:16:20;;;;;;;3.58;3.28;;;17.40;99.90;;;18.31;91.35;97941.63;5220418;28;20222;-61
2021/08/20 00:18:54;;;;;;;4.70;3.30;;;17.40;99.90;;;18.24;91.49;97945.75;5217154;28;20190;-60
2021/08/20 00:21:27;;;;;;;5.20;3.88;;;17.30;99.90;;;18.20;91.26;97944.81;5216999;28;20281;-61
2021/08/20 00:24:01;;;;;;;4.03;3.72;;;17.30;99.90;;;18.16;91.68;97937.78;5214647;28;20194;-61
2021/08/20 00:26:35;;;;;;;4.70;3.92;;;17.20;99.90;;;18.10;91.73;97932.44;5218604;28;20221;-61
2021/08/20 00:29:08;;;;;;;4.13;3.70;;;17.20;99.90;;;18.05;92.12;97940.88;5218709;28;20218;-60
2021/08/20 00:31:41;;;;;;;3.25;3.00;;;17.10;99.90;;;18.02;92.17;97934.78;5214379;28;20198;-61
2021/08/20 00:34:13;;;;;;;4.65;3.60;;;17.10;99.90;;;18.01;92.61;97937.34;5214265;28;20660;-61
2021/08/20 00:36:47;;;;;;;4.03;3.72;;;17.10;99.90;;;18.07;92.80;97932.34;5211895;28;20252;-61
2021/08/20 00:39:22;;;;;;;3.80;3.50;;;17.20;99.90;;;18.11;92.61;97935.88;5216009;28;20241;-59
2021/08/20 00:41:55;;;;;;;4.45;4.05;;;17.20;99.90;;;18.12;93.10;97924.72;5224176;28;20201;-60
2021/08/20 00:44:28;;;;;;;3.83;3.63;;;17.20;99.90;;;18.13;92.88;97927.34;5225754;28;20573;-60
2021/08/20 00:47:02;;;;;;;4.10;3.80;;;17.20;99.90;;;18.15;92.79;97927.41;5212833;28;20224;-61
2021/08/20 00:49:36;;;;;;;4.50;4.10;;;17.30;99.90;;;18.20;92.08;97923.25;5214204;28;20233;-60
2021/08/20 00:52:10;;;;;;;4.18;3.88;;;17.30;99.90;;;18.22;91.62;97931.91;5210735;28;20284;-57
2021/08/20 00:54:44;;;;;;;5.18;4.07;;;17.30;99.90;;;18.18;91.75;97930.06;5212591;28;20553;-61
2021/08/20 00:57:17;;;;;;;4.00;3.70;;;17.30;99.90;;;18.14;91.86;97923.03;5208541;28;20205;-60
2021/08/20 00:59:50;;;;;;;4.07;3.78;;;17.20;99.90;;;18.14;92.44;97921.34;5217285;28;20678;-60
2021/08/20 01:02:23;;;;;;;4.30;3.90;;;17.30;99.90;;;18.13;92.36;97926.47;5219893;28;20279;-60
2021/08/20 01:04:57;;;;;;;4.15;3.67;;;17.30;99.90;;;18.14;92.45;97917.88;5219751;28;20248;-59
2021/08/20 01:07:36;;;;;;;4.57;3.80;;;17.20;99.90;;;18.14;92.07;97918.78;5217210;28;20200;-60
2021/08/20 01:10:13;;;;;;;4.32;3.55;;;17.20;99.90;;;18.13;92.49;97931.66;5217816;28;20752;-60
2021/08/20 01:12:46;;;;;;;4.85;4.00;;;17.20;99.90;;;18.10;92.49;97926.38;5213070;28;20228;-60
2021/08/20 01:15:19;;;;;;;4.20;3.90;;;17.20;99.90;;;18.10;92.32;97934.16;5212628;28;20226;-59
2021/08/20 01:17:52;;;;;;;3.95;3.58;;;17.20;99.90;;;18.11;92.74;97931.59;5222987;28;20224;-60
2021/08/20 01:20:25;;;;;;;4.13;3.83;;;17.20;99.90;;;18.11;92.44;97917.78;5218072;28;20293;-60
2021/08/20 01:22:58;;;;;;;3.85;3.55;;;17.30;99.90;;;18.16;92.59;97917.06;5208168;28;20211;-60
2021/08/20 01:25:34;;;;;;;4.28;3.88;;;17.20;99.90;;;18.18;92.00;97924.91;5211439;28;20217;-61
2021/08/20 01:28:08;;;;;;;4.22;3.92;;;17.20;99.90;;;18.14;92.91;97918.78;5223249;28;20200;-61
2021/08/20 01:30:42;;;;;;;3.78;3.45;;;17.20;99.90;;;18.14;92.99;97912.69;5210855;28;20226;-60
2021/08/20 01:33:15;;;;;;;3.70;3.40;;;17.20;99.90;;;18.10;92.73;97921.22;5216317;28;20624;-61
2021/08/20 01:35:48;;;;;;;3.90;3.55;;;17.20;99.90;;;18.09;92.83;97924.66;5220169;28;20705;-60
2021/08/20 01:38:21;;;;;;;5.93;3.80;;;17.20;99.90;;;18.06;92.88;97925.44;5213014;28;20672;-60
2021/08/20 01:40:56;;;;;;;3.70;3.40;;;17.20;99.90;;;18.02;92.83;97929.63;5206540;28;20194;-60
2021/08/20 01:43:29;;;;;;;4.00;3.60;;;17.10;99.90;;;18.05;93.24;97921.06;5214919;28;20193;-60
2021/08/20 01:46:02;;;;;;;4.10;3.80;;;17.20;99.90;;;18.06;93.34;97909.91;5211940;28;20218;-60
2021/08/20 01:48:35;;;;;;;4.88;3.40;;;17.20;99.90;;;18.09;93.13;97906.53;5214267;28;20697;-59
2021/08/20 01:51:08;;;;;;;4.18;3.88;;;17.20;99.90;;;18.09;93.04;97906.53;5206402;28;20221;-60
2021/08/20 01:53:43;;;;;;;3.83;3.53;;;17.20;99.90;;;18.02;92.47;97913.22;5210308;28;20516;-60
2021/08/20 01:56:19;;;;;;;4.40;4.10;;;17.10;99.90;;;18.02;92.69;97908.91;5214017;28;20682;-60
2021/08/20 01:58:54;;;;;;;4.47;4.00;;;17.10;99.90;;;18.00;92.73;97910.59;5207660;28;20211;-60
2021/08/20 02:01:35;;;;;;;4.30;3.90;;;17.10;99.90;;;18.04;92.52;97911.56;5208397;28;20198;-58
2021/08/20 02:04:08;;;;;;;4.68;3.80;;;17.10;99.90;;;18.06;92.69;97911.63;5205666;28;20654;-61
2021/08/20 02:06:41;;;;;;;4.07;3.65;;;17.10;99.90;;;18.06;92.50;97911.63;5225294;28;20487;-60
2021/08/20 02:09:14;;;;;;;3.80;3.47;;;17.20;99.90;;;18.04;92.62;97916.75;5219279;28;20292;-61
2021/08/20 02:11:50;;;;;;;4.55;3.83;;;17.20;99.90;;;18.05;92.60;97909.84;5210203;28;20227;-61
2021/08/20 02:14:23;;;;;;;3.80;3.50;;;17.10;99.90;;;18.07;92.35;97908.19;5221006;28;20284;-60
2021/08/20 02:16:56;;;;;;;4.03;3.65;;;17.10;99.90;;;18.06;92.32;97916.78;5220427;28;20318;-61
2021/08/20 02:19:30;;;;;;;4.43;4.07;;;17.10;99.90;;;17.97;92.20;97913.13;5214552;28;20202;-61
2021/08/20 02:22:03;;;;;;;4.43;4.03;;;17.10;99.90;;;17.94;92.37;97915.63;5211098;28;20671;-60
2021/08/20 02:24:36;;;;;;;3.58;3.38;;;17.00;99.90;;;17.92;92.90;97925.03;5210905;28;20243;-61
2021/08/20 02:27:11;;;;;;;4.00;3.60;;;17.00;99.90;;;17.93;92.79;97921.59;5220276;28;20266;-61
2021/08/20 02:29:44;;;;;;;4.05;3.75;;;17.10;99.90;;;17.97;93.03;97926.03;5222447;28;20224;-61
2021/08/20 02:32:17;;;;;;;3.85;3.55;;;17.10;99.90;;;17.98;93.05;97924.31;5212697;28;20197;-60
2021/08/20 02:34:50;;;;;;;4.47;3.80;;;17.10;99.90;;;17.98;92.88;97927.78;5206414;28;20697;-61
2021/08/20 02:37:23;;;;;;;4.05;3.65;;;17.10;99.90;;;17.98;93.28;97917.44;5206893;28;20665;-60
2021/08/20 02:39:56;;;;;;;4.40;3.85;;;17.00;99.90;;;17.97;92.90;97925.13;5219754;28;20213;-60
2021/08/20 02:42:30;;;;;;;3.92;3.50;;;17.00;99.90;;;17.96;93.02;97919.09;5208921;28;20202;-60
2021/08/20 02:45:04;;;;;;;5.55;3.80;;;17.00;99.90;;;17.97;93.25;97919.97;5212958;28;20201;-60
2021/08/20 02:47:37;;;;;;;4.38;3.88;;;17.00;99.90;;;17.94;93.06;97920.78;5223920;28;20587;-58
2021/08/20 02:50:11;;;;;;;3.92;3.63;;;17.00;99.90;;;17.95;93.14;97914.78;5225411;28;20217;-60
2021/08/20 02:52:44;;;;;;;4.38;3.70;;;17.00;99.90;;;17.91;93.95;97920.69;5210381;28;20199;-61
2021/08/20 02:55:17;;;;;;;4.32;3.90;;;17.00;99.90;;;17.86;93.89;97921.41;5211264;28;20225;-61
2021/08/20 02:57:52;;;;;;;4.20;3.72;;;17.00;99.90;;;17.87;93.79;97918.84;5214528;28;20722;-60
2021/08/20 03:00:25;;;;;;;4.15;3.80;;;17.00;99.90;;;17.82;93.97;97910.06;5218053;28;20595;-61
2021/08/20 03:02:58;;;;;;;4.10;3.53;;;16.90;99.90;;;17.85;93.58;97917.91;5206170;28;20574;-60
2021/08/20 03:05:32;;;;;;;3.90;3.60;;;16.90;99.90;;;17.82;93.28;97923.00;5212823;28;20217;-61
2021/08/20 03:08:06;;;;;;;3.78;3.47;;;16.90;99.90;;;17.80;94.21;97922.09;5216068;28;20197;-60
2021/08/20 03:10:40;;;;;;;3.83;3.50;;;16.90;99.90;;;17.85;93.86;97919.63;5209159;28;20222;-60
2021/08/20 03:13:15;;;;;;;4.05;3.75;;;16.90;99.90;;;17.79;93.77;97916.00;5214019;28;20554;-60
2021/08/20 03:15:48;;;;;;;4.70;3.92;;;16.90;99.90;;;17.82;94.02;97919.53;5213649;28;20648;-61
2021/08/20 03:18:21;;;;;;;4.13;3.67;;;16.90;99.90;;;17.79;94.36;97922.91;5211152;28;20206;-60
2021/08/20 03:20:54;;;;;;;4.40;4.00;;;16.90;99.90;;;17.83;94.13;97919.59;5213305;28;20210;-60
2021/08/20 03:23:27;;;;;;;4.10;3.80;;;16.90;99.90;;;17.83;93.69;97919.59;5205549;28;20206;-60
2021/08/20 03:26:01;;;;;;;4.28;3.90;;;16.90;99.90;;;17.85;94.01;97915.31;5204660;28;20226;-60
2021/08/20 03:28:35;;;;;;;4.03;3.75;;;16.90;99.90;;;17.82;94.49;97920.41;5205815;28;20646;-60
2021/08/20 03:31:08;;;;;;;4.03;3.70;;;16.90;99.90;;;17.81;94.58;97916.06;5210307;28;20217;-60
2021/08/20 03:33:41;;;;;;;5.85;4.00;;;17.00;99.90;;;17.84;94.16;97918.75;5207437;28;20212;-60
2021/08/20 03:36:14;;;;;;;4.30;3.90;;;16.90;99.90;;;17.88;94.08;97918.00;5212800;28;20235;-61
2021/08/20 03:38:49;;;;;;;4.40;4.00;;;16.90;99.90;;;17.87;93.66;97921.41;5205494;28;20201;-60
2021/08/20 03:41:23;;;;;;;4.40;4.00;;;16.90;99.90;;;17.78;94.79;97926.31;5205155;28;20542;-60
2021/08/20 03:43:57;;;;;;;3.80;3.50;;;16.90;99.90;;;17.73;94.84;97933.03;5212494;28;20208;-60
2021/08/20 03:46:31;;;;;;;3.70;3.42;;;16.90;99.90;;;17.76;94.48;97922.78;5209461;28;20221;-60
2021/08/20 03:49:04;;;;;;;4.47;4.05;;;16.90;99.90;;;17.76;94.52;97925.38;5223024;28;20201;-60
2021/08/20 03:51:37;;;;;;;4.28;3.97;;;16.90;99.90;;;17.76;94.00;97935.72;5213730;28;20221;-60
2021/08/20 03:54:11;;;;;;;8.95;8.25;;;16.90;99.90;;;17.79;94.58;97941.00;5212758;28;20570;-60
2021/08/20 03:56:44;;;;;;;8.98;8.23;;;16.90;99.90;;;17.81;94.50;97939.34;5208379;28;20496;-60
2021/08/20 03:59:18;;;;;;;6.72;6.18;;;16.90;99.90;;;17.78;94.41;97947.00;5231304;28;20212;-60
2021/08/20 04:01:51;;;;;;;7.80;7.20;;;16.90;99.90;;;17.77;94.45;97940.06;5215931;28;20198;-60
2021/08/20 04:04:24;;;;;;;4.50;4.10;;;16.90;99.90;;;17.81;93.80;97938.47;5212277;28;20226;-60
2021/08/20 04:06:58;;;;;;;4.50;4.10;;;16.90;99.90;;;17.80;94.18;97945.38;5225618;28;20221;-60
2021/08/20 04:09:31;;;;;;;4.05;3.70;;;16.90;99.90;;;17.82;93.73;97941.09;5221044;28;20479;-60
2021/08/20 04:12:05;;;;;;;4.38;3.97;;;16.90;99.90;;;17.82;93.70;97948.84;5222139;28;20221;-60
2021/08/20 04:14:39;;;;;;;4.68;4.22;;;16.90;99.90;;;17.79;94.33;97948.75;5223972;28;20244;-60
2021/08/20 04:17:12;;;;;;;4.20;3.80;;;16.90;99.90;;;17.79;94.78;97943.59;5212607;28;20252;-60
2021/08/20 04:19:45;;;;;;;4.57;4.20;;;17.00;99.90;;;17.78;94.28;97947.00;5216594;28;20603;-59
2021/08/20 04:22:18;;;;;;;4.70;4.03;;;16.90;99.90;;;17.82;94.31;97941.09;5217734;28;20588;-60
2021/08/20 04:24:51;;;;;;;4.55;3.88;;;16.90;99.90;;;17.82;93.90;97941.09;5218207;28;20707;-60
2021/08/20 04:27:24;;;;;;;4.80;4.40;;;16.90;99.90;;;17.84;93.80;97944.59;5221573;28;20612;-60
2021/08/20 04:29:59;;;;;;;4.55;4.25;;;16.90;99.90;;;17.82;93.97;97946.25;5215729;28;20212;-60
2021/08/20 04:32:32;;;;;;;5.35;4.03;;;16.90;99.90;;;17.77;94.12;97950.41;5222085;28;20251;-60
2021/08/20 04:35:07;;;;;;;5.20;4.22;;;16.80;99.90;;;17.74;93.97;97945.13;5223411;28;20201;-61
2021/08/20 04:37:40;;;;;;;4.72;4.43;;;16.80;99.90;;;17.66;93.82;97944.91;5218681;28;20207;-59
2021/08/20 04:40:14;;;;;;;4.55;4.15;;;16.80;99.90;;;17.70;93.91;97949.31;5210436;28;20577;-60
2021/08/20 04:42:47;;;;;;;4.32;3.90;;;16.80;99.90;;;17.67;93.57;97948.38;5218001;28;20201;-60
2021/08/20 04:45:22;;;;;;;4.43;3.97;;;16.80;99.90;;;17.70;93.79;97951.03;5212473;28;20287;-58
2021/08/20 04:47:55;;;;;;;4.93;4.03;;;16.80;99.90;;;17.72;93.96;97954.56;5212935;28;20193;-59
2021/08/20 04:50:29;;;;;;;4.70;4.20;;;16.80;99.90;;;17.75;93.73;97954.66;5210655;28;20294;-59
2021/08/20 04:53:03;;;;;;;4.40;4.00;;;16.90;99.90;;;17.77;94.20;97963.34;5207609;28;20221;-59
2021/08/20 04:55:36;;;;;;;4.00;3.70;;;16.90;99.90;;;17.79;93.96;97956.50;5222870;28;20259;-60
2021/08/20 04:58:09;;;;;;;4.10;3.80;;;16.90;99.90;;;17.83;94.46;97960.06;5215461;28;20572;-60
2021/08/20 05:00:47;;;;;;;4.30;3.90;;;16.90;99.90;;;17.83;93.92;97963.56;5217352;28;20206;-59
2021/08/20 05:03:21;;;;;;;4.85;3.42;;;17.00;99.90;;;17.85;94.02;97964.44;5208207;28;20201;-60
2021/08/20 05:05:54;;;;;;;4.63;4.20;;;17.00;99.90;;;17.84;94.09;97964.41;5215869;28;20224;-60
2021/08/20 05:08:27;;;;;;;4.03;3.83;;;17.00;99.90;;;17.86;94.55;97961.06;5209038;28;20202;-60
2021/08/20 05:11:00;;;;;;;4.43;4.07;;;17.00;99.90;;;17.90;94.32;97956.84;5214064;28;20719;-60
2021/08/20 05:13:33;;;;;;;4.13;3.65;;;17.00;99.90;;;17.89;94.31;97957.69;5214774;28;20211;-60
2021/08/20 05:16:08;;;;;;;3.83;3.53;;;17.00;99.90;;;17.91;93.96;97967.25;5212062;28;20719;-61
2021/08/20 05:18:41;;;;;;;4.07;3.80;;;17.00;99.90;;;17.95;93.54;97968.22;5210498;28;20287;-61
2021/08/20 05:21:14;;;;;;;4.20;3.90;;;17.00;99.90;;;17.94;93.67;97964.75;5220539;28;20202;-59
2021/08/20 05:23:47;;;;;;;4.20;3.75;;;17.00;99.90;;;17.93;93.94;97981.09;5215133;28;20208;-60
2021/08/20 05:26:20;;;;;;;4.18;3.88;;;17.00;99.90;;;17.92;93.97;97979.34;5207270;28;20228;-60
2021/08/20 05:28:53;;;;;;;4.15;3.90;;;17.00;99.90;;;17.95;93.89;97975.97;5207034;28;20198;-60
2021/08/20 05:31:27;;;;;;;4.40;3.95;;;17.00;99.90;;;17.99;93.32;97978.66;5215254;28;20224;-60
2021/08/20 05:34:00;;;;;;;4.40;4.00;;;17.00;99.90;;;18.00;92.94;97987.34;5212560;28;20204;-60
2021/08/20 05:36:34;;;;;;;5.18;4.20;;;17.10;99.90;;;17.97;93.30;97985.53;5218971;28;20212;-60
2021/08/20 05:39:07;;;;;;;4.53;4.13;;;17.10;99.90;;;17.92;94.42;97989.69;5213913;28;20198;-61
2021/08/20 05:41:40;;;;;;;4.97;4.05;;;17.00;99.90;;;17.91;93.78;97987.03;5206814;28;20198;-59
2021/08/20 05:44:13;;;;;;;4.70;4.30;;;17.10;99.90;;;17.91;93.60;97998.28;5210874;28;20199;-59
2021/08/20 05:46:47;;;;;;;4.22;3.85;;;17.00;99.90;;;17.92;93.36;97993.97;5222976;28;20712;-60
2021/08/20 05:49:20;;;;;;;4.55;4.20;;;17.00;99.90;;;17.97;93.56;98001.06;5213783;28;20207;-60
2021/08/20 05:51:53;;;;;;;4.72;4.32;;;17.10;99.90;;;17.96;93.15;98001.00;5214604;28;20615;-60
2021/08/20 05:54:26;;;;;;;5.07;4.57;;;17.10;99.90;;;17.98;93.08;98002.78;5212515;28;20201;-60
2021/08/20 05:56:59;;;;;;;9.02;7.70;;;17.10;99.90;;;17.96;93.76;98001.88;5215166;28;20225;-60
2021/08/20 05:59:32;;;;;;;6.38;5.50;;;17.10;99.90;;;18.03;92.87;98000.34;5213971;28;20737;-60
2021/08/20 06:02:07;;;;;;;5.78;5.10;;;17.10;99.90;;;18.01;92.51;98005.47;5220872;28;20577;-58
2021/08/20 06:04:40;;;;;;;4.80;4.40;;;17.10;99.90;;;17.97;93.17;98007.91;5220038;28;20208;-60
2021/08/20 06:07:13;;;;;;;5.03;4.53;;;17.10;99.90;;;17.98;92.77;98002.78;5223415;28;20293;-59
2021/08/20 06:09:46;;;;;;;4.35;4.05;;;17.10;99.90;;;18.03;93.13;98013.28;5219736;28;20207;-60
2021/08/20 06:12:19;;;;;;;4.82;4.30;;;17.20;99.90;;;17.99;92.99;98012.31;5217599;28;20224;-59
2021/08/20 06:14:52;;;;;;;4.07;3.78;;;17.20;99.90;;;18.05;92.67;98021.09;5217496;28;20194;-59
2021/08/20 06:17:27;;;;;;;3.85;3.65;;;17.20;99.90;;;18.10;92.77;98019.53;5220185;28;21756;-59
2021/08/20 06:20:00;;;;;;;4.60;3.90;;;17.20;99.90;;;18.11;93.03;98018.66;5219394;28;20231;-59
2021/08/20 06:22:33;;;;;;;4.22;3.90;;;17.30;99.90;;;18.15;92.53;98016.25;5218523;28;20197;-60
2021/08/20 06:25:08;;;;;;;4.40;4.00;;;17.30;99.90;;;18.19;92.99;98022.38;5216998;28;20212;-60
2021/08/20 06:27:41;;;;;;;4.40;4.00;;;17.30;99.90;;;18.22;93.04;98014.69;5219273;28;20197;-59
2021/08/20 06:30:14;;;;;;;4.35;3.95;;;17.30;99.90;;;18.29;92.89;98020.94;5219223;28;20201;-59
2021/08/20 06:32:48;;;;;;;4.53;4.15;;;17.40;99.90;;;18.38;92.14;98021.22;5219224;28;20225;-60
2021/08/20 06:35:22;;;;;;;4.30;4.00;;;17.40;99.90;;;18.41;92.39;98027.34;5220031;28;20216;-60
2021/08/20 06:37:55;;;;;;;4.20;3.80;;;17.50;99.90;;;18.52;92.45;98024.19;5214414;28;20213;-59
2021/08/20 06:40:28;;;;;;;4.60;4.30;;;17.60;99.90;;;18.63;91.61;98026.25;5217937;28;20205;-59
2021/08/20 06:43:01;;;;;;;4.20;3.90;;;17.70;99.90;;;18.72;91.31;98020.44;5216536;28;20665;-59
2021/08/20 06:45:34;;;;;;;4.40;4.03;;;17.80;99.90;;;18.87;90.25;98020.03;5213785;28;20740;-59
2021/08/20 06:48:09;;;;;;;4.18;3.78;;;17.90;99.90;;;18.95;90.06;98020.22;5216890;28;20204;-60
2021/08/20 06:50:42;;;;;;;3.95;3.65;;;18.00;99.90;;;19.04;89.41;98020.47;5217718;28;20197;-58
2021/08/20 06:53:15;;;;;;;4.10;3.83;;;18.10;99.90;;;19.12;88.03;98016.38;5215720;28;20220;-60
2021/08/20 06:55:48;;;;;;;4.35;4.05;;;18.10;99.90;;;19.18;87.50;98013.94;5214176;28;20739;-58
2021/08/20 06:58:21;;;;;;;5.88;4.10;;;18.10;99.90;;;19.25;87.53;98021.00;5218039;28;20207;-60
2021/08/20 07:00:54;;;;;;;4.03;3.72;;;18.20;99.90;;;19.30;86.95;98024.59;5217549;28;20211;-60
2021/08/20 07:03:29;;;;;;;4.18;3.88;;;18.30;99.90;;;19.39;86.81;98023.06;5215532;28;20189;-60
2021/08/20 07:06:02;;;;;;;4.40;4.00;;;18.40;99.90;;;19.49;86.44;98030.25;5216374;28;20304;-59
2021/08/20 07:08:35;;;;;;;5.10;4.45;;;18.50;99.90;;;19.67;85.73;98015.16;5217442;28;20205;-60
2021/08/20 07:11:08;;;;;;;4.55;4.25;;;18.70;99.90;;;19.82;85.05;98021.56;5216511;28;20205;-60
2021/08/20 07:13:41;;;;;;;4.30;4.00;;;18.90;99.90;;;20.00;84.22;98016.75;5213517;28;20346;-59
2021/08/20 07:16:15;;;;;;;4.10;3.80;;;19.00;99.90;;;20.17;83.34;98024.94;5217572;28;20224;-59
2021/08/20 07:18:49;;;;;;;4.35;3.90;;;19.10;99.90;;;20.34;82.49;98026.16;5214119;28;20204;-61
2021/08/20 07:21:22;;;;;;;4.93;4.20;;;19.30;99.90;;;20.60;81.22;98029.34;5216395;28;20205;-59
2021/08/20 07:23:55;;;;;;;4.55;4.20;;;19.50;99.90;;;21.32;78.96;98024.63;5215977;28;20472;-60
2021/08/20 07:26:28;;;;;;;4.57;4.18;;;20.00;99.90;;;22.37;73.87;98014.97;5220030;28;20327;-60
2021/08/20 07:29:01;;;;;;;4.47;4.07;;;20.70;99.90;;;23.24;69.15;98022.06;5219301;28;20197;-58
2021/08/20 07:31:35;;;;;;;4.82;4.30;;;21.30;99.90;;;23.43;66.58;98017.88;5220774;28;20197;-59
2021/08/20 07:34:10;;;;;;;3.97;3.67;;;21.50;99.90;;;23.51;66.31;98016.19;5212099;28;20232;-60
2021/08/20 07:36:43;;;;;;;4.63;4.10;;;21.70;99.90;;;23.80;64.17;98019.06;5215677;28;20227;-60
2021/08/20 07:39:16;;;;;;;4.72;4.32;;;21.90;99.90;;;23.85;64.26;98013.88;5216466;28;20205;-59
2021/08/20 07:41:49;;;;;;;5.07;4.57;;;21.90;99.90;;;24.52;62.87;98014.25;5218189;28;20202;-59
2021/08/20 07:44:22;;;;;;;5.22;4.72;;;22.50;99.90;;;25.26;60.18;98020.59;5220582;28;20193;-61
2021/08/20 07:46:56;;;;;;;4.75;4.28;;;23.10;99.90;;;25.53;57.63;98026.75;5219216;28;20220;-60
2021/08/20 07:49:31;;;;;;;4.32;4.03;;;23.20;99.90;;;25.60;58.24;98024.09;5219447;28;20208;-61
2021/08/20 07:52:05;;;;;;;3.92;3.63;;;23.50;99.90;;;25.58;57.37;98019.75;5220598;28;20215;-59
2021/08/20 07:54:38;;;;;;;4.40;4.00;;;23.70;99.90;;;25.82;57.21;98019.78;5220309;28;20216;-59
2021/08/20 07:57:11;;;;;;;4.30;4.00;;;24.00;99.90;;;26.01;57.07;98018.00;5219815;28;20254;-60
2021/08/20 07:59:44;;;;;;;4.38;3.97;;;24.30;99.90;;;26.14;56.49;98020.59;5224977;28;20196;-60
2021/08/20 08:02:17;;;;;;;5.13;4.63;;;24.50;99.90;;;26.28;55.33;98018.81;5222256;28;20609;-60
2021/08/20 08:04:51;;;;;;;5.53;4.07;;;24.60;99.90;;;26.23;55.11;98023.19;5216835;28;20212;-60
2021/08/20 08:07:24;;;;;;;4.28;3.88;;;24.40;99.90;;;26.34;54.68;98029.28;5220740;28;20208;-60
2021/08/20 08:09:57;;;;;;;4.35;4.03;;;24.40;99.90;;;26.39;54.28;98022.28;5218294;28;20197;-60
2021/08/20 08:12:30;;;;;;;4.28;3.95;;;24.70;99.90;;;26.41;54.32;98015.28;5219801;28;20207;-60
2021/08/20 08:15:04;;;;;;;4.00;3.70;;;24.70;99.90;;;26.40;54.23;98024.00;5219160;28;20204;-59
2021/08/20 08:17:38;;;;;;;3.95;3.55;;;24.90;99.90;;;26.47;54.18;98025.75;5220303;28;20207;-62
2021/08/20 08:20:15;;;;;;;4.30;3.72;;;24.90;99.90;;;26.35;55.08;98030.13;5220310;28;20200;-61
2021/08/20 08:22:48;;;;;;;4.60;4.20;;;24.90;99.90;;;26.26;54.39;98026.66;5219570;28;20304;-61
2021/08/20 08:25:23;;;;;;;4.20;3.90;;;24.90;99.90;;;26.57;52.18;98026.59;5221064;28;20263;-61
2021/08/20 08:27:59;;;;;;;4.30;4.00;;;25.10;99.90;;;26.75;51.93;98028.25;5220276;28;20212;-61
2021/08/20 08:30:38;;;;;;;4.55;4.05;;;25.10;99.90;;;26.84;52.24;98030.88;5215164;28;20200;-61
2021/08/20 08:33:11;;;;;;;3.78;3.47;;;25.20;99.90;;;26.90;52.35;98030.81;5225791;28;20250;-60
2021/08/20 08:36:06;;;;;;;4.53;4.13;;;25.40;99.90;;;27.11;51.44;98035.06;5213269;28;20228;-61
2021/08/20 08:38:39;;;;;;;4.65;4.32;;;25.60;99.90;;;27.19;50.97;98032.44;5221989;28;20204;-61
2021/08/20 08:41:12;;;;;;;4.68;4.28;;;25.70;99.90;;;27.21;51.11;98029.78;5229937;28;20199;-61
2021/08/20 08:43:45;;;;;;;5.07;4.68;;;25.80;99.90;;;27.23;50.79;98028.91;5223139;28;20197;-62
2021/08/20 08:46:22;;;;;;;5.40;4.85;;;25.90;99.90;;;27.38;50.46;98033.16;5227526;28;20216;-60
2021/08/20 08:48:55;;;;;;;5.20;4.80;;;26.00;99.90;;;27.61;49.80;98033.88;5228041;28;20665;-60
2021/08/20 08:51:30;;;;;;;5.63;5.00;;;26.20;99.90;;;27.57;49.81;98026.03;5233596;28;20237;-61
2021/08/20 08:54:04;;;;;;;4.45;4.15;;;26.10;99.90;;;27.64;49.36;98032.97;5226743;28;20226;-61
2021/08/20 08:56:37;;;;;;;4.47;4.10;;;26.10;99.90;;;27.21;49.66;98033.28;5223039;28;20231;-61
2021/08/20 08:59:10;;;;;;;4.32;3.92;;;25.80;99.90;;;26.95;50.45;98028.16;5225848;28;21003;-60
2021/08/20 09:01:43;;;;;;;4.60;4.20;;;25.70;99.90;;;26.84;50.02;98024.72;5219811;28;20203;-62
2021/08/20 09:04:21;;;;;;;4.50;4.10;;;25.60;99.90;;;26.83;49.92;98029.09;5221476;28;20232;-60
2021/08/20 09:06:57;;;;;;;4.60;4.30;;;25.60;99.90;;;26.95;50.71;98028.16;5223147;28;20336;-61
2021/08/20 09:09:30;;;;;;;5.00;4.50;;;25.70;99.90;;;26.99;49.24;98023.78;5215383;28;20193;-61
2021/08/20 09:12:09;;;;;;;4.95;4.05;;;25.50;99.90;;;27.03;49.83;98031.63;5217377;28;20216;-61
2021/08/20 09:14:42;;;;;;;4.55;4.13;;;25.50;99.90;;;27.09;49.16;98022.84;5211553;28;20232;-60
2021/08/20 09:17:15;;;;;;;3.80;3.60;;;25.60;99.80;;;27.11;49.26;98019.31;5218172;28;20221;-59
2021/08/20 09:19:48;;;;;;;3.63;3.33;;;25.80;99.90;;;27.36;49.43;98021.81;5217356;28;20200;-61
2021/08/20 09:22:34;;;;;;;3.95;3.65;;;26.10;99.30;;;27.48;48.93;98028.75;5224303;28;20196;-61
2021/08/20 09:25:08;;;;;;;3.40;3.10;;;26.20;99.20;;;27.53;48.19;98027.81;5221654;28;20205;-61
2021/08/20 09:27:42;;;;;;;3.38;3.08;;;25.90;99.50;;;27.65;46.37;98021.59;5218594;28;20296;-61
2021/08/20 09:30:18;;;;;;;3.70;3.40;;;26.20;98.40;;;27.76;45.89;98030.25;5222287;28;20201;-62
2021/08/20 09:32:52;;;;;;;4.03;3.40;;;26.30;97.50;;;27.87;46.25;98024.91;5231119;28;20596;-62
2021/08/20 09:35:29;;;;;;;3.55;3.35;;;26.50;97.30;;;27.99;47.11;98021.31;5229394;28;20260;-62
2021/08/20 09:38:10;;;;;;;5.35;3.85;;;26.90;98.30;;;27.95;47.21;98020.44;5221873;28;20205;-60
2021/08/20 09:40:55;;;;;;;3.83;3.53;;;26.80;98.20;;;27.61;48.97;98030.34;5215094;28;20287;-61
2021/08/20 09:43:33;;;;;;;4.53;3.78;;;26.40;99.50;;;27.37;49.48;98032.31;5224290;28;20296;-61
2021/08/20 09:46:09;;;;;;;4.10;3.80;;;26.00;99.80;;;26.96;50.24;98033.41;5219812;28;20328;-61
2021/08/20 09:48:50;;;;;;;4.25;3.88;;;25.70;99.90;;;26.99;50.66;98031.66;5230604;28;20664;-61
2021/08/20 09:51:44;;;;;;;4.75;4.38;;;25.80;99.90;;;26.84;50.09;98028.25;5216011;28;20200;-62
2021/08/20 09:54:22;;;;;;;4.47;4.15;;;25.80;99.30;;;26.83;50.11;98023.84;5215164;28;20228;-61
2021/08/20 09:57:05;;;;;;;4.88;4.47;;;25.60;99.60;;;26.80;49.33;98034.38;5219915;28;20262;-61
2021/08/20 09:59:38;;;;;;;3.83;3.53;;;25.70;98.80;;;26.78;49.26;98025.63;5207294;28;20646;-62
2021/08/20 10:02:18;;;;;;;4.20;3.80;;;25.60;99.10;;;26.76;49.69;98024.78;5210156;28;20743;-62
2021/08/20 10:04:55;;;;;;;4.13;3.75;;;25.50;99.50;;;26.78;49.81;98030.88;5213513;28;20291;-62
2021/08/20 10:07:28;;;;;;;5.28;4.00;;;25.60;99.40;;;26.81;49.63;98020.34;5209239;28;20185;-60
2021/08/20 10:10:04;;;;;;;3.83;3.53;;;25.50;99.40;;;27.05;48.32;98013.25;5215738;28;20204;-60
2021/08/20 10:12:44;;;;;;;4.38;4.07;;;25.70;98.70;;;27.23;48.03;98023.66;5226860;28;20192;-60
2021/08/20 10:15:17;;;;;;;4.78;4.25;;;25.90;98.30;;;27.24;47.47;98017.50;5215319;28;20528;-61
2021/08/20 10:17:50;;;;;;;4.25;3.95;;;25.90;98.00;;;27.27;48.62;98019.25;5221542;28;20560;-61
2021/08/20 10:20:23;;;;;;;4.10;3.80;;;25.90;98.70;;;26.97;47.62;98013.28;5219575;28;20295;-60
2021/08/20 10:22:57;;;;;;;3.70;3.40;;;25.80;97.70;;;27.10;47.97;98017.59;5217931;28;20193;-61
2021/08/20 10:25:32;;;;;;;3.40;3.20;;;25.80;98.30;;;26.79;48.62;98014.28;5226478;28;20217;-61
2021/08/20 10:28:05;;;;;;;4.20;3.58;;;25.60;98.30;;;26.49;48.15;98018.72;5222585;28;20310;-61
2021/08/20 10:30:39;;;;;;;4.05;3.75;;;25.20;97.90;;;26.21;49.18;98011.81;5231695;28;20219;-61
2021/08/20 10:33:12;;;;;;;3.95;3.65;;;24.90;98.70;;;26.25;48.69;98013.59;5213582;28;20538;-62
2021/08/20 10:35:56;;;;;;;3.40;3.20;;;24.90;98.20;;;26.16;49.17;98021.47;5223243;28;20780;-61
2021/08/20 10:38:34;;;;;;;3.53;3.33;;;24.70;98.70;;;26.27;48.32;98014.47;5208001;28;20203;-60
2021/08/20 10:41:18;;;;;;;3.55;3.35;;;24.70;98.40;;;26.45;47.71;98021.38;5213450;28;20201;-61
2021/08/20 10:44:03;;;;;;;3.70;3.40;;;24.90;97.90;;;26.40;46.75;98012.66;5218544;28;20214;-60
2021/08/20 10:47:09;;;;;;;4.18;3.83;;;25.20;96.90;;;26.35;46.77;98014.41;5208149;28;20585;-61
2021/08/20 10:49:45;;;;;;;3.72;3.42;;;25.00;97.10;;;26.32;47.05;98010.03;5218114;28;20207;-59